Time;durP1;ratioP1;P1;durP2;ratioP2;P2;SDS_P1;SDS_P2;PMS_P1;PMS_P2;Temp;Humidity;BMP_temperature;BMP_pressure;BME280_temperature;BME280_humidity;BME280_pressure;Samples;Min_cycle;Max_cycle;Signal;HPM_P1;HPM_P2
2022/09/12 00:00:49;;;;;;;;;;;;;;;;;;1897259;28;7005;-67
2022/09/12 00:01:47;;;;;;;;;;;;;;;;;;1890033;28;7207;-66
2022/09/12 00:02:44;;;;;;;;;;;;;;;;;;1888011;28;7009;-66
2022/09/12 00:03:41;;;;;;;;;;;;;;;;;;1894559;28;7017;-66
2022/09/12 00:04:39;;;;;;;;;;;;;;;;;;1899260;28;8051;-66
2022/09/12 00:05:43;;;;;;;;;;;;;;;;;;1896608;28;7146;-66
2022/09/12 00:06:40;;;;;;;;;;;;;;;;;;1897014;28;7578;-66
2022/09/12 00:07:38;;;;;;;;;;;;;;;;;;1896358;28;8629;-66
2022/09/12 00:08:36;;;;;;;;;;;;;;;;;;1896557;28;7017;-66
2022/09/12 00:09:33;;;;;;;;;;;;;;;;;;1895958;28;7010;-66
2022/09/12 00:10:31;;;;;;;;;;;;;;;;;;1897749;28;7096;-66
2022/09/12 00:11:28;;;;;;;;;;;;;;;;;;1904005;28;7074;-66
2022/09/12 00:12:25;;;;;;;;;;;;;;;;;;1904191;28;7006;-66
2022/09/12 00:13:23;;;;;;;;;;;;;;;;;;1861015;28;1234446;-66
2022/09/12 00:14:20;;;;;;;;;;;;;;;;;;1901949;28;7013;-66
2022/09/12 00:15:18;;;;;;;;;;;;;;;;;;1897863;28;7124;-66
2022/09/12 00:16:19;;;;;;;;;;;;;;;;;;1896623;28;7317;-66
2022/09/12 00:17:17;;;;;;;;;;;;;;;;;;1896021;28;7010;-66
2022/09/12 00:18:15;;;;;;;;;;;;;;;;;;1896793;28;7088;-66
2022/09/12 00:19:12;;;;;;;;;;;;;;;;;;1896640;28;7034;-66
2022/09/12 00:20:10;;;;;;;;;;;;;;;;;;1894590;28;7268;-67
2022/09/12 00:21:07;;;;;;;;;;;;;;;;;;1897035;28;7050;-67
2022/09/12 00:22:05;;;;;;;;;;;;;;;;;;1897645;28;7096;-66
2022/09/12 00:23:03;;;;;;;;;;;;;;;;;;1897145;28;7089;-66
2022/09/12 00:24:01;;;;;;;;;;;;;;;;;;1895788;28;7100;-66
2022/09/12 00:24:58;;;;;;;;;;;;;;;;;;1897518;28;7005;-66
2022/09/12 00:25:55;;;;;;;;;;;;;;;;;;1896895;28;7096;-66
2022/09/12 00:26:53;;;;;;;;;;;;;;;;;;1898689;28;7212;-66
2022/09/12 00:27:50;;;;;;;;;;;;;;;;;;1896762;28;8098;-66
2022/09/12 00:28:48;;;;;;;;;;;;;;;;;;1901286;28;7009;-67
2022/09/12 00:29:45;;;;;;;;;;;;;;;;;;1904548;28;7323;-66
2022/09/12 00:30:45;;;;;;;;;;;;;;;;;;1904673;28;7005;-66
2022/09/12 00:31:42;;;;;;;;;;;;;;;;;;1902833;28;7009;-66
2022/09/12 00:32:40;;;;;;;;;;;;;;;;;;1896905;28;7009;-66
2022/09/12 00:33:37;;;;;;;;;;;;;;;;;;1897063;28;7117;-66
2022/09/12 00:34:35;;;;;;;;;;;;;;;;;;1896234;28;7009;-66
2022/09/12 00:35:32;;;;;;;;;;;;;;;;;;1900331;28;7100;-67
2022/09/12 00:36:29;;;;;;;;;;;;;;;;;;1904175;28;7088;-65
2022/09/12 00:37:27;;;;;;;;;;;;;;;;;;1904674;28;7013;-66
2022/09/12 00:38:24;;;;;;;;;;;;;;;;;;1900266;28;8325;-66
2022/09/12 00:39:21;;;;;;;;;;;;;;;;;;1888265;28;7113;-66
2022/09/12 00:40:19;;;;;;;;;;;;;;;;;;1889016;28;7025;-66
2022/09/12 00:41:19;;;;;;;;;;;;;;;;;;1891351;28;7097;-66
2022/09/12 00:42:16;;;;;;;;;;;;;;;;;;1889362;28;8078;-65
2022/09/12 00:43:32;;;;;;;;;;;;;;;;;;1899653;28;7395;-66
2022/09/12 00:44:29;;;;;;;;;;;;;;;;;;1896152;28;8178;-66
2022/09/12 00:45:28;;;;;;;;;;;;;;;;;;1896822;28;7006;-65
2022/09/12 00:46:30;;;;;;;;;;;;;;;;;;1890194;28;7016;-65
2022/09/12 00:47:30;;;;;;;;;;;;;;;;;;1895469;28;7009;-66
2022/09/12 00:48:32;;;;;;;;;;;;;;;;;;1901572;28;7444;-65
2022/09/12 00:49:30;;;;;;;;;;;;;;;;;;1890463;28;7009;-65
2022/09/12 00:50:28;;;;;;;;;;;;;;;;;;1889207;28;7001;-66
2022/09/12 00:51:29;;;;;;;;;;;;;;;;;;1898052;28;7002;-67
2022/09/12 00:52:43;;;;;;;;;;;;;;;;;;1904233;28;7009;-67
2022/09/12 00:53:43;;;;;;;;;;;;;;;;;;1904469;28;7092;-68
2022/09/12 00:54:46;;;;;;;;;;;;;;;;;;1904582;28;7121;-68
2022/09/12 00:55:49;;;;;;;;;;;;;;;;;;1904529;28;7152;-68
2022/09/12 00:56:52;;;;;;;;;;;;;;;;;;1902921;28;7149;-68
2022/09/12 00:57:52;;;;;;;;;;;;;;;;;;1895931;28;7890;-68
2022/09/12 00:59:15;;;;;;;;;;;;;;;;;;1889356;28;7316;-67
2022/09/12 01:00:15;;;;;;;;;;;;;;;;;;1894720;28;7046;-68
2022/09/12 01:01:12;;;;;;;;;;;;;;;;;;1903574;28;7022;-68
2022/09/12 01:02:10;;;;;;;;;;;;;;;;;;1901702;28;7006;-68
2022/09/12 01:03:13;;;;;;;;;;;;;;;;;;1904003;28;7006;-68
2022/09/12 01:04:11;;;;;;;;;;;;;;;;;;1904168;28;7018;-67
2022/09/12 01:05:10;;;;;;;;;;;;;;;;;;1901661;28;7261;-67
2022/09/12 01:06:14;;;;;;;;;;;;;;;;;;1889052;28;7030;-67
2022/09/12 01:07:14;;;;;;;;;;;;;;;;;;1889872;28;8048;-68
2022/09/12 01:08:11;;;;;;;;;;;;;;;;;;1895030;28;7093;-67
2022/09/12 01:09:14;;;;;;;;;;;;;;;;;;1897234;28;7029;-67
2022/09/12 01:10:12;;;;;;;;;;;;;;;;;;1899002;28;7021;-67
2022/09/12 01:11:12;;;;;;;;;;;;;;;;;;1899296;28;7026;-67
2022/09/12 01:12:10;;;;;;;;;;;;;;;;;;1896969;28;7001;-67
2022/09/12 01:13:09;;;;;;;;;;;;;;;;;;1895910;28;7395;-68
2022/09/12 01:14:06;;;;;;;;;;;;;;;;;;1893125;28;7136;-67
2022/09/12 01:15:04;;;;;;;;;;;;;;;;;;1889205;28;7006;-68
2022/09/12 01:16:02;;;;;;;;;;;;;;;;;;1897206;28;7006;-67
2022/09/12 01:17:00;;;;;;;;;;;;;;;;;;1896806;28;7097;-68
2022/09/12 01:18:03;;;;;;;;;;;;;;;;;;1896429;28;7005;-67
2022/09/12 01:19:19;;;;;;;;;;;;;;;;;;1896240;28;7006;-67
2022/09/12 01:20:34;;;;;;;;;;;;;;;;;;1897009;28;7010;-67
2022/09/12 01:21:54;;;;;;;;;;;;;;;;;;1896791;28;7030;-67
2022/09/12 01:23:10;;;;;;;;;;;;;;;;;;1866318;29;7014;-67
2022/09/12 01:24:10;;;;;;;;;;;;;;;;;;1896295;28;8054;-67
2022/09/12 01:25:26;;;;;;;;;;;;;;;;;;1895500;28;7014;-67
2022/09/12 01:26:26;;;;;;;;;;;;;;;;;;1896603;28;7013;-67
2022/09/12 01:27:43;;;;;;;;;;;;;;;;;;1896484;28;7100;-67
2022/09/12 01:28:43;;;;;;;;;;;;;;;;;;1896390;28;7010;-67
2022/09/12 01:29:44;;;;;;;;;;;;;;;;;;1896263;28;7006;-67
2022/09/12 01:30:50;;;;;;;;;;;;;;;;;;1895155;28;7013;-67
2022/09/12 01:31:56;;;;;;;;;;;;;;;;;;1892881;28;7107;-67
2022/09/12 01:33:06;;;;;;;;;;;;;;;;;;1882223;28;7845;-67
2022/09/12 01:34:06;;;;;;;;;;;;;;;;;;1886476;28;7006;-67
2022/09/12 01:35:24;;;;;;;;;;;;;;;;;;1889453;28;7014;-67
2022/09/12 01:36:24;;;;;;;;;;;;;;;;;;1889862;28;7416;-67
2022/09/12 01:37:42;;;;;;;;;;;;;;;;;;1889311;28;7120;-67
2022/09/12 01:38:49;;;;;;;;;;;;;;;;;;1885504;28;7010;-67
2022/09/12 01:39:57;;;;;;;;;;;;;;;;;;1888105;28;7006;-67
2022/09/12 01:41:04;;;;;;;;;;;;;;;;;;1889333;28;7002;-67
2022/09/12 01:42:20;;;;;;;;;;;;;;;;;;1889372;28;7005;-67
2022/09/12 01:43:36;;;;;;;;;;;;;;;;;;1895633;28;7320;-67
2022/09/12 01:44:33;;;;;;;;;;;;;;;;;;1895977;28;7143;-67
2022/09/12 01:45:39;;;;;;;;;;;;;;;;;;1895855;28;7045;-68
2022/09/12 01:46:45;;;;;;;;;;;;;;;;;;1894576;28;7009;-67
2022/09/12 01:47:46;;;;;;;;;;;;;;;;;;1896581;28;7013;-67
2022/09/12 01:49:02;;;;;;;;;;;;;;;;;;1896818;28;7400;-67
2022/09/12 01:50:06;;;;;;;;;;;;;;;;;;1895596;28;7013;-67
2022/09/12 01:51:13;;;;;;;;;;;;;;;;;;1896574;28;7042;-67
2022/09/12 01:52:17;;;;;;;;;;;;;;;;;;1889852;28;7009;-67
2022/09/12 01:53:32;;;;;;;;;;;;;;;;;;1889271;28;7034;-67
2022/09/12 01:54:38;;;;;;;;;;;;;;;;;;1891076;28;7046;-67
2022/09/12 01:55:36;;;;;;;;;;;;;;;;;;1896574;28;7029;-67
2022/09/12 01:56:37;;;;;;;;;;;;;;;;;;1896718;28;8064;-67
2022/09/12 01:57:49;;;;;;;;;;;;;;;;;;1896615;28;7120;-67
2022/09/12 01:58:46;;;;;;;;;;;;;;;;;;1895795;28;7005;-67
2022/09/12 01:59:47;;;;;;;;;;;;;;;;;;1889329;28;7010;-67
2022/09/12 02:00:49;;;;;;;;;;;;;;;;;;1889323;28;7109;-67
2022/09/12 02:01:54;;;;;;;;;;;;;;;;;;1889364;28;7039;-67
2022/09/12 02:02:54;;;;;;;;;;;;;;;;;;1889392;28;7005;-67
2022/09/12 02:04:15;;;;;;;;;;;;;;;;;;1895279;28;7093;-68
2022/09/12 02:05:20;;;;;;;;;;;;;;;;;;1879052;28;8044;-67
2022/09/12 02:06:22;;;;;;;;;;;;;;;;;;1888281;28;7002;-67
2022/09/12 02:07:24;;;;;;;;;;;;;;;;;;1889288;28;7134;-67
2022/09/12 02:08:26;;;;;;;;;;;;;;;;;;1888766;28;8022;-67
2022/09/12 02:09:24;;;;;;;;;;;;;;;;;;1890948;28;7089;-67
2022/09/12 02:10:29;;;;;;;;;;;;;;;;;;1890600;28;7009;-67
2022/09/12 02:11:33;;;;;;;;;;;;;;;;;;1896634;28;7001;-67
2022/09/12 02:12:35;;;;;;;;;;;;;;;;;;1885425;28;7006;-67
2022/09/12 02:13:36;;;;;;;;;;;;;;;;;;1888683;28;7010;-68
2022/09/12 02:14:37;;;;;;;;;;;;;;;;;;1903308;28;7022;-67
2022/09/12 02:15:37;;;;;;;;;;;;;;;;;;1903488;28;7042;-67
2022/09/12 02:16:45;;;;;;;;;;;;;;;;;;1904042;28;7010;-67
2022/09/12 02:17:46;;;;;;;;;;;;;;;;;;1904332;28;8050;-67
2022/09/12 02:18:48;;;;;;;;;;;;;;;;;;1904084;28;7041;-67
2022/09/12 02:19:55;;;;;;;;;;;;;;;;;;1904271;28;7152;-67
2022/09/12 02:20:55;;;;;;;;;;;;;;;;;;1904003;28;7005;-68
2022/09/12 02:21:54;;;;;;;;;;;;;;;;;;1903278;28;7009;-67
2022/09/12 02:22:54;;;;;;;;;;;;;;;;;;1904135;28;7009;-67
2022/09/12 02:23:57;;;;;;;;;;;;;;;;;;1904352;28;7127;-67
2022/09/12 02:24:57;;;;;;;;;;;;;;;;;;1904459;28;7029;-67
2022/09/12 02:25:58;;;;;;;;;;;;;;;;;;1904135;28;7005;-67
2022/09/12 02:27:00;;;;;;;;;;;;;;;;;;1904080;28;7046;-67
2022/09/12 02:28:19;;;;;;;;;;;;;;;;;;1904008;28;7005;-67
2022/09/12 02:29:16;;;;;;;;;;;;;;;;;;1902841;28;7045;-67
2022/09/12 02:30:15;;;;;;;;;;;;;;;;;;1903547;28;7005;-67
2022/09/12 02:31:24;;;;;;;;;;;;;;;;;;1907948;28;7006;-68
2022/09/12 02:32:53;;;;;;;;;;;;;;;;;;1903668;28;7009;-67
2022/09/12 02:34:09;;;;;;;;;;;;;;;;;;1903650;28;7042;-67
2022/09/12 02:35:09;;;;;;;;;;;;;;;;;;1903392;28;7005;-67
2022/09/12 02:36:14;;;;;;;;;;;;;;;;;;1904175;28;8022;-67
2022/09/12 02:37:21;;;;;;;;;;;;;;;;;;1904437;28;7097;-67
2022/09/12 02:38:24;;;;;;;;;;;;;;;;;;1904187;28;7009;-67
2022/09/12 02:39:21;;;;;;;;;;;;;;;;;;1904028;28;7096;-67
2022/09/12 02:40:19;;;;;;;;;;;;;;;;;;1904008;28;8114;-67
2022/09/12 02:41:18;;;;;;;;;;;;;;;;;;1903921;28;7010;-67
2022/09/12 02:42:16;;;;;;;;;;;;;;;;;;1904134;28;7005;-67
2022/09/12 02:43:13;;;;;;;;;;;;;;;;;;1903835;28;7017;-67
2022/09/12 02:44:11;;;;;;;;;;;;;;;;;;1903226;28;7013;-68
2022/09/12 02:45:10;;;;;;;;;;;;;;;;;;1903815;28;7172;-67
2022/09/12 02:46:13;;;;;;;;;;;;;;;;;;1904457;28;7041;-67
2022/09/12 02:47:18;;;;;;;;;;;;;;;;;;1903127;28;7045;-67
2022/09/12 02:48:20;;;;;;;;;;;;;;;;;;1910929;28;7117;-67
2022/09/12 02:49:17;;;;;;;;;;;;;;;;;;1910852;28;7109;-67
2022/09/12 02:50:15;;;;;;;;;;;;;;;;;;1903888;28;7186;-67
2022/09/12 02:51:13;;;;;;;;;;;;;;;;;;1903837;28;7010;-67
2022/09/12 02:52:11;;;;;;;;;;;;;;;;;;1903962;28;8045;-67
2022/09/12 02:53:09;;;;;;;;;;;;;;;;;;1902338;28;7132;-67
2022/09/12 02:54:08;;;;;;;;;;;;;;;;;;1903564;28;7124;-67
2022/09/12 02:55:07;;;;;;;;;;;;;;;;;;1904181;28;7010;-67
2022/09/12 02:56:07;;;;;;;;;;;;;;;;;;1903912;28;8097;-67
2022/09/12 02:57:14;;;;;;;;;;;;;;;;;;1903247;28;7005;-67
2022/09/12 02:58:19;;;;;;;;;;;;;;;;;;1904016;28;7030;-67
2022/09/12 02:59:19;;;;;;;;;;;;;;;;;;1904091;28;7100;-67
2022/09/12 03:00:16;;;;;;;;;;;;;;;;;;1902697;28;7360;-67
2022/09/12 03:01:34;;;;;;;;;;;;;;;;;;1901830;28;7100;-67
2022/09/12 03:02:35;;;;;;;;;;;;;;;;;;1901855;28;8057;-68
2022/09/12 03:03:44;;;;;;;;;;;;;;;;;;1903448;28;7077;-67
2022/09/12 03:04:51;;;;;;;;;;;;;;;;;;1903023;28;7104;-67
2022/09/12 03:05:51;;;;;;;;;;;;;;;;;;1903107;28;8036;-67
2022/09/12 03:07:11;;;;;;;;;;;;;;;;;;1902619;28;7038;-68
2022/09/12 03:08:11;;;;;;;;;;;;;;;;;;1903511;28;7089;-67
2022/09/12 03:09:20;;;;;;;;;;;;;;;;;;1904078;28;10039;-67
2022/09/12 03:10:25;;;;;;;;;;;;;;;;;;1903997;28;7006;-67
2022/09/12 03:11:34;;;;;;;;;;;;;;;;;;1902786;28;7096;-67
2022/09/12 03:12:32;;;;;;;;;;;;;;;;;;1902660;28;7092;-67
2022/09/12 03:13:44;;;;;;;;;;;;;;;;;;1903476;28;7013;-66
2022/09/12 03:14:42;;;;;;;;;;;;;;;;;;1901712;28;8044;-67
2022/09/12 03:15:50;;;;;;;;;;;;;;;;;;1902915;28;7029;-67
2022/09/12 03:16:47;;;;;;;;;;;;;;;;;;1903592;28;7041;-67
2022/09/12 03:18:02;;;;;;;;;;;;;;;;;;1904014;28;7315;-67
2022/09/12 03:18:59;;;;;;;;;;;;;;;;;;1903430;28;7133;-67
2022/09/12 03:20:05;;;;;;;;;;;;;;;;;;1904554;28;7009;-67
2022/09/12 03:21:25;;;;;;;;;;;;;;;;;;1903689;28;7096;-67
2022/09/12 03:22:22;;;;;;;;;;;;;;;;;;1893476;28;7009;-67
2022/09/12 03:23:29;;;;;;;;;;;;;;;;;;1903536;28;7013;-66
2022/09/12 03:24:36;;;;;;;;;;;;;;;;;;1903830;28;7041;-66
2022/09/12 03:25:45;;;;;;;;;;;;;;;;;;1903761;28;7025;-67
2022/09/12 03:26:45;;;;;;;;;;;;;;;;;;1904026;28;7498;-67
2022/09/12 03:27:56;;;;;;;;;;;;;;;;;;1903580;28;7092;-66
2022/09/12 03:28:56;;;;;;;;;;;;;;;;;;1903541;28;7116;-67
2022/09/12 03:29:54;;;;;;;;;;;;;;;;;;1903985;28;7324;-67
2022/09/12 03:30:53;;;;;;;;;;;;;;;;;;1904358;28;7025;-67
2022/09/12 03:31:56;;;;;;;;;;;;;;;;;;1903919;28;7002;-67
2022/09/12 03:32:54;;;;;;;;;;;;;;;;;;1903615;28;7065;-67
2022/09/12 03:33:51;;;;;;;;;;;;;;;;;;1903671;28;7323;-67
2022/09/12 03:34:49;;;;;;;;;;;;;;;;;;1903921;28;7009;-67
2022/09/12 03:35:47;;;;;;;;;;;;;;;;;;1903322;28;7006;-67
2022/09/12 03:36:45;;;;;;;;;;;;;;;;;;1903605;28;7002;-67
2022/09/12 03:37:43;;;;;;;;;;;;;;;;;;1903635;28;8166;-67
2022/09/12 03:38:40;;;;;;;;;;;;;;;;;;1904399;28;7336;-67
2022/09/12 03:39:37;;;;;;;;;;;;;;;;;;1903892;28;7005;-67
2022/09/12 03:40:36;;;;;;;;;;;;;;;;;;1904010;28;7025;-66
2022/09/12 03:41:33;;;;;;;;;;;;;;;;;;1903371;28;7033;-67
2022/09/12 03:42:31;;;;;;;;;;;;;;;;;;1903363;28;7489;-67
2022/09/12 03:43:28;;;;;;;;;;;;;;;;;;1902835;28;7188;-67
2022/09/12 03:44:25;;;;;;;;;;;;;;;;;;1896239;28;7042;-67
2022/09/12 03:45:23;;;;;;;;;;;;;;;;;;1902532;28;7303;-67
2022/09/12 03:46:20;;;;;;;;;;;;;;;;;;1903112;28;7124;-67
2022/09/12 03:47:17;;;;;;;;;;;;;;;;;;1903503;28;7145;-66
2022/09/12 03:48:15;;;;;;;;;;;;;;;;;;1903186;28;8102;-67
2022/09/12 03:49:12;;;;;;;;;;;;;;;;;;1903469;28;7005;-67
2022/09/12 03:50:10;;;;;;;;;;;;;;;;;;1903533;28;7418;-67
2022/09/12 03:51:09;;;;;;;;;;;;;;;;;;1902730;28;7013;-67
2022/09/12 03:52:06;;;;;;;;;;;;;;;;;;1904244;28;7033;-67
2022/09/12 03:53:04;;;;;;;;;;;;;;;;;;1903773;28;7010;-67
2022/09/12 03:54:02;;;;;;;;;;;;;;;;;;1903380;28;7112;-67
2022/09/12 03:54:59;;;;;;;;;;;;;;;;;;1903651;28;7396;-67
2022/09/12 03:55:57;;;;;;;;;;;;;;;;;;1903989;28;7042;-67
2022/09/12 03:56:54;;;;;;;;;;;;;;;;;;1905067;28;7010;-67
2022/09/12 03:57:52;;;;;;;;;;;;;;;;;;1905413;28;7010;-68
2022/09/12 03:58:49;;;;;;;;;;;;;;;;;;1905522;28;7042;-67
2022/09/12 03:59:48;;;;;;;;;;;;;;;;;;1905040;28;7132;-67
2022/09/12 04:00:45;;;;;;;;;;;;;;;;;;1904546;28;7014;-67
2022/09/12 04:01:42;;;;;;;;;;;;;;;;;;1905591;28;7081;-67
2022/09/12 04:02:40;;;;;;;;;;;;;;;;;;1905083;28;8752;-67
2022/09/12 04:03:38;;;;;;;;;;;;;;;;;;1904991;28;8041;-67
2022/09/12 04:04:36;;;;;;;;;;;;;;;;;;1905257;28;7042;-67
2022/09/12 04:05:34;;;;;;;;;;;;;;;;;;1905920;28;7010;-67
2022/09/12 04:06:31;;;;;;;;;;;;;;;;;;1905733;28;7014;-67
2022/09/12 04:07:29;;;;;;;;;;;;;;;;;;1905771;28;8258;-67
2022/09/12 04:08:27;;;;;;;;;;;;;;;;;;1912135;28;7005;-67
2022/09/12 04:09:25;;;;;;;;;;;;;;;;;;1912634;28;7113;-67
2022/09/12 04:10:22;;;;;;;;;;;;;;;;;;1904134;28;7088;-67
2022/09/12 04:11:20;;;;;;;;;;;;;;;;;;1905306;28;7046;-67
2022/09/12 04:12:18;;;;;;;;;;;;;;;;;;1905728;28;7045;-67
2022/09/12 04:13:15;;;;;;;;;;;;;;;;;;1905878;28;7001;-67
2022/09/12 04:14:13;;;;;;;;;;;;;;;;;;1905136;28;7005;-67
2022/09/12 04:15:10;;;;;;;;;;;;;;;;;;1905097;28;7005;-67
2022/09/12 04:16:08;;;;;;;;;;;;;;;;;;1905300;28;7009;-67
2022/09/12 04:17:06;;;;;;;;;;;;;;;;;;1904279;28;7014;-67
2022/09/12 04:18:04;;;;;;;;;;;;;;;;;;1901913;28;8050;-67
2022/09/12 04:19:02;;;;;;;;;;;;;;;;;;1905054;28;7041;-67
2022/09/12 04:20:00;;;;;;;;;;;;;;;;;;1905886;28;7069;-67
2022/09/12 04:20:57;;;;;;;;;;;;;;;;;;1905045;28;7006;-67
2022/09/12 04:21:54;;;;;;;;;;;;;;;;;;1905376;28;7010;-67
2022/09/12 04:22:52;;;;;;;;;;;;;;;;;;1904075;28;7406;-67
2022/09/12 04:23:49;;;;;;;;;;;;;;;;;;1903581;28;7010;-67
2022/09/12 04:24:47;;;;;;;;;;;;;;;;;;1905599;28;7009;-67
2022/09/12 04:25:52;;;;;;;;;;;;;;;;;;1905134;28;7005;-67
2022/09/12 04:26:49;;;;;;;;;;;;;;;;;;1905509;28;7046;-67
2022/09/12 04:27:47;;;;;;;;;;;;;;;;;;1906071;28;7222;-67
2022/09/12 04:28:45;;;;;;;;;;;;;;;;;;1905520;28;7268;-67
2022/09/12 04:29:42;;;;;;;;;;;;;;;;;;1905352;28;7013;-66
2022/09/12 04:30:40;;;;;;;;;;;;;;;;;;1905144;28;7046;-67
2022/09/12 04:31:38;;;;;;;;;;;;;;;;;;1905452;28;7100;-67
2022/09/12 04:32:35;;;;;;;;;;;;;;;;;;1903962;28;7017;-67
2022/09/12 04:33:33;;;;;;;;;;;;;;;;;;1904882;28;7097;-67
2022/09/12 04:34:31;;;;;;;;;;;;;;;;;;1905281;28;7033;-67
2022/09/12 04:35:28;;;;;;;;;;;;;;;;;;1904936;28;7010;-67
2022/09/12 04:36:27;;;;;;;;;;;;;;;;;;1904755;28;7013;-67
2022/09/12 04:37:25;;;;;;;;;;;;;;;;;;1903884;28;7110;-66
2022/09/12 04:38:23;;;;;;;;;;;;;;;;;;1903886;28;7013;-67
2022/09/12 04:39:20;;;;;;;;;;;;;;;;;;1905224;28;7332;-67
2022/09/12 04:40:18;;;;;;;;;;;;;;;;;;1905019;28;7072;-67
2022/09/12 04:41:19;;;;;;;;;;;;;;;;;;1905631;28;7077;-67
2022/09/12 04:42:16;;;;;;;;;;;;;;;;;;1904726;28;7081;-67
2022/09/12 04:43:14;;;;;;;;;;;;;;;;;;1904976;28;7068;-67
2022/09/12 04:44:13;;;;;;;;;;;;;;;;;;1904803;28;7041;-67
2022/09/12 04:45:12;;;;;;;;;;;;;;;;;;1905091;28;7176;-67
2022/09/12 04:46:11;;;;;;;;;;;;;;;;;;1905112;28;7033;-67
2022/09/12 04:47:08;;;;;;;;;;;;;;;;;;1905750;28;7038;-67
2022/09/12 04:48:06;;;;;;;;;;;;;;;;;;1904501;28;7137;-67
2022/09/12 04:49:03;;;;;;;;;;;;;;;;;;1905322;28;7129;-67
2022/09/12 04:50:01;;;;;;;;;;;;;;;;;;1905245;28;7029;-67
2022/09/12 04:51:30;;;;;;;;;;;;;;;;;;1904940;28;7009;-67
2022/09/12 04:52:28;;;;;;;;;;;;;;;;;;1878347;28;7029;-67
2022/09/12 04:53:25;;;;;;;;;;;;;;;;;;1895667;28;7017;-67
2022/09/12 04:54:22;;;;;;;;;;;;;;;;;;1904746;28;7010;-67
2022/09/12 04:55:20;;;;;;;;;;;;;;;;;;1905294;28;7204;-67
2022/09/12 04:56:19;;;;;;;;;;;;;;;;;;1905440;28;7013;-67
2022/09/12 04:57:16;;;;;;;;;;;;;;;;;;1904891;28;7005;-67
2022/09/12 04:58:13;;;;;;;;;;;;;;;;;;1904835;28;7010;-67
2022/09/12 04:59:12;;;;;;;;;;;;;;;;;;1904956;28;7093;-67
2022/09/12 05:00:13;;;;;;;;;;;;;;;;;;1905487;28;7005;-67
2022/09/12 05:01:13;;;;;;;;;;;;;;;;;;1903844;28;7089;-67
2022/09/12 05:02:10;;;;;;;;;;;;;;;;;;1904970;28;7009;-68
2022/09/12 05:03:08;;;;;;;;;;;;;;;;;;1904882;28;7033;-67
2022/09/12 05:04:05;;;;;;;;;;;;;;;;;;1904918;28;8029;-67
2022/09/12 05:05:03;;;;;;;;;;;;;;;;;;1904035;28;8083;-67
2022/09/12 05:06:01;;;;;;;;;;;;;;;;;;1904865;28;7046;-67
2022/09/12 05:06:58;;;;;;;;;;;;;;;;;;1904742;28;7026;-67
2022/09/12 05:07:56;;;;;;;;;;;;;;;;;;1911377;28;7009;-67
2022/09/12 05:08:54;;;;;;;;;;;;;;;;;;1911697;28;8097;-67
2022/09/12 05:09:52;;;;;;;;;;;;;;;;;;1905569;28;7413;-67
2022/09/12 05:10:49;;;;;;;;;;;;;;;;;;1905201;28;7092;-67
2022/09/12 05:11:47;;;;;;;;;;;;;;;;;;1905123;28;7005;-67
2022/09/12 05:13:01;;;;;;;;;;;;;;;;;;1904933;28;7029;-67
2022/09/12 05:13:59;;;;;;;;;;;;;;;;;;1904901;28;7117;-67
2022/09/12 05:14:56;;;;;;;;;;;;;;;;;;1905185;28;7006;-66
2022/09/12 05:15:56;;;;;;;;;;;;;;;;;;1905172;28;7069;-67
2022/09/12 05:16:55;;;;;;;;;;;;;;;;;;1905593;28;7112;-66
2022/09/12 05:17:52;;;;;;;;;;;;;;;;;;1904692;28;7005;-66
2022/09/12 05:18:50;;;;;;;;;;;;;;;;;;1905187;28;7152;-67
2022/09/12 05:19:47;;;;;;;;;;;;;;;;;;1904768;28;7073;-67
2022/09/12 05:20:45;;;;;;;;;;;;;;;;;;1905088;28;7013;-67
2022/09/12 05:21:42;;;;;;;;;;;;;;;;;;1904706;28;7073;-67
2022/09/12 05:22:39;;;;;;;;;;;;;;;;;;1903940;28;7313;-67
2022/09/12 05:23:37;;;;;;;;;;;;;;;;;;1905445;28;7596;-67
2022/09/12 05:24:34;;;;;;;;;;;;;;;;;;1905089;28;7046;-66
2022/09/12 05:25:31;;;;;;;;;;;;;;;;;;1904800;28;7010;-68
2022/09/12 05:26:29;;;;;;;;;;;;;;;;;;1904624;28;7005;-67
2022/09/12 05:27:26;;;;;;;;;;;;;;;;;;1904219;28;7009;-67
2022/09/12 05:28:27;;;;;;;;;;;;;;;;;;1904423;28;7013;-67
2022/09/12 05:29:24;;;;;;;;;;;;;;;;;;1904436;28;7046;-67
2022/09/12 05:30:22;;;;;;;;;;;;;;;;;;1904065;28;7037;-66
2022/09/12 05:31:21;;;;;;;;;;;;;;;;;;1903983;28;7018;-67
2022/09/12 05:32:19;;;;;;;;;;;;;;;;;;1904868;28;7040;-66
2022/09/12 05:33:16;;;;;;;;;;;;;;;;;;1904551;28;7009;-67
2022/09/12 05:34:20;;;;;;;;;;;;;;;;;;1903182;28;7038;-67
2022/09/12 05:35:18;;;;;;;;;;;;;;;;;;1904297;28;8047;-67
2022/09/12 05:36:16;;;;;;;;;;;;;;;;;;1904783;28;7128;-67
2022/09/12 05:37:14;;;;;;;;;;;;;;;;;;1904894;28;7049;-67
2022/09/12 05:38:11;;;;;;;;;;;;;;;;;;1905289;28;7001;-67
2022/09/12 05:39:08;;;;;;;;;;;;;;;;;;1904996;28;7005;-68
2022/09/12 05:40:07;;;;;;;;;;;;;;;;;;1904769;28;7037;-67
2022/09/12 05:41:06;;;;;;;;;;;;;;;;;;1905096;28;7304;-67
2022/09/12 05:42:04;;;;;;;;;;;;;;;;;;1904779;28;7163;-66
2022/09/12 05:43:03;;;;;;;;;;;;;;;;;;1904533;28;7009;-67
2022/09/12 05:44:03;;;;;;;;;;;;;;;;;;1904604;28;7096;-67
2022/09/12 05:45:00;;;;;;;;;;;;;;;;;;1904832;28;7013;-67
2022/09/12 05:46:07;;;;;;;;;;;;;;;;;;1905058;28;7042;-67
2022/09/12 05:47:05;;;;;;;;;;;;;;;;;;1905092;28;8046;-68
2022/09/12 05:48:02;;;;;;;;;;;;;;;;;;1904188;28;7041;-67
2022/09/12 05:49:04;;;;;;;;;;;;;;;;;;1903731;28;7009;-66
2022/09/12 05:50:01;;;;;;;;;;;;;;;;;;1903241;28;7233;-67
2022/09/12 05:51:09;;;;;;;;;;;;;;;;;;1903817;28;7335;-67
2022/09/12 05:52:07;;;;;;;;;;;;;;;;;;1903831;28;7092;-67
2022/09/12 05:53:04;;;;;;;;;;;;;;;;;;1904445;28;7005;-67
2022/09/12 05:54:03;;;;;;;;;;;;;;;;;;1904722;28;7017;-67
2022/09/12 05:55:01;;;;;;;;;;;;;;;;;;1904775;28;7009;-67
2022/09/12 05:56:07;;;;;;;;;;;;;;;;;;1903889;28;7013;-66
2022/09/12 05:57:05;;;;;;;;;;;;;;;;;;1904861;28;7010;-68
2022/09/12 05:58:02;;;;;;;;;;;;;;;;;;1903404;28;7018;-66
2022/09/12 05:59:01;;;;;;;;;;;;;;;;;;1904496;28;7092;-66
2022/09/12 05:59:59;;;;;;;;;;;;;;;;;;1904540;28;7038;-67
2022/09/12 06:01:00;;;;;;;;;;;;;;;;;;1904567;28;7092;-67
2022/09/12 06:01:57;;;;;;;;;;;;;;;;;;1904470;28;7081;-67
2022/09/12 06:02:55;;;;;;;;;;;;;;;;;;1904524;28;7013;-67
2022/09/12 06:03:53;;;;;;;;;;;;;;;;;;1904886;28;8047;-67
2022/09/12 06:04:51;;;;;;;;;;;;;;;;;;1904901;28;7029;-67
2022/09/12 06:05:48;;;;;;;;;;;;;;;;;;1902486;28;7026;-67
2022/09/12 06:06:47;;;;;;;;;;;;;;;;;;1901938;28;7010;-67
2022/09/12 06:07:45;;;;;;;;;;;;;;;;;;1904502;28;7002;-67
2022/09/12 06:08:44;;;;;;;;;;;;;;;;;;1904488;28;7664;-66
2022/09/12 06:09:42;;;;;;;;;;;;;;;;;;1904464;28;7034;-67
2022/09/12 06:10:40;;;;;;;;;;;;;;;;;;1904355;28;8222;-66
2022/09/12 06:11:39;;;;;;;;;;;;;;;;;;1904701;28;7005;-67
2022/09/12 06:12:37;;;;;;;;;;;;;;;;;;1904771;28;7038;-67
2022/09/12 06:13:41;;;;;;;;;;;;;;;;;;1904251;28;7048;-68
2022/09/12 06:14:39;;;;;;;;;;;;;;;;;;1903980;28;7005;-67
2022/09/12 06:15:36;;;;;;;;;;;;;;;;;;1903625;28;7013;-67
2022/09/12 06:16:34;;;;;;;;;;;;;;;;;;1903254;28;7315;-66
2022/09/12 06:17:31;;;;;;;;;;;;;;;;;;1904476;28;8095;-67
2022/09/12 06:18:28;;;;;;;;;;;;;;;;;;1904216;28;8031;-67
2022/09/12 06:19:26;;;;;;;;;;;;;;;;;;1904842;28;7005;-67
2022/09/12 06:20:24;;;;;;;;;;;;;;;;;;1903374;28;7025;-67
2022/09/12 06:21:22;;;;;;;;;;;;;;;;;;1904582;28;7010;-67
2022/09/12 06:22:20;;;;;;;;;;;;;;;;;;1904373;28;7017;-67
2022/09/12 06:23:17;;;;;;;;;;;;;;;;;;1902916;28;7006;-67
2022/09/12 06:24:16;;;;;;;;;;;;;;;;;;1904390;28;7005;-68
2022/09/12 06:25:13;;;;;;;;;;;;;;;;;;1904107;28;7009;-67
2022/09/12 06:26:11;;;;;;;;;;;;;;;;;;1904939;28;7084;-67
2022/09/12 06:27:09;;;;;;;;;;;;;;;;;;1904530;28;7010;-67
2022/09/12 06:28:07;;;;;;;;;;;;;;;;;;1904256;28;7034;-67
2022/09/12 06:29:04;;;;;;;;;;;;;;;;;;1904415;28;7081;-67
2022/09/12 06:30:02;;;;;;;;;;;;;;;;;;1903598;28;7092;-67
2022/09/12 06:31:03;;;;;;;;;;;;;;;;;;1902531;28;7088;-64
2022/09/12 06:32:01;;;;;;;;;;;;;;;;;;1904009;28;8374;-66
2022/09/12 06:32:58;;;;;;;;;;;;;;;;;;1903844;28;8191;-67
2022/09/12 06:33:58;;;;;;;;;;;;;;;;;;1904214;28;7207;-67
2022/09/12 06:34:56;;;;;;;;;;;;;;;;;;1902824;28;7057;-67
2022/09/12 06:35:53;;;;;;;;;;;;;;;;;;1902811;28;7113;-66
2022/09/12 06:36:51;;;;;;;;;;;;;;;;;;1904308;28;7096;-67
2022/09/12 06:37:48;;;;;;;;;;;;;;;;;;1903781;28;7005;-67
2022/09/12 06:38:47;;;;;;;;;;;;;;;;;;1903806;28;7009;-67
2022/09/12 06:39:45;;;;;;;;;;;;;;;;;;1910550;28;7002;-67
2022/09/12 06:40:43;;;;;;;;;;;;;;;;;;1910866;28;7092;-67
2022/09/12 06:41:40;;;;;;;;;;;;;;;;;;1903309;28;7054;-67
2022/09/12 06:42:40;;;;;;;;;;;;;;;;;;1903841;28;7017;-67
2022/09/12 06:43:39;;;;;;;;;;;;;;;;;;1904364;28;8081;-67
2022/09/12 06:44:36;;;;;;;;;;;;;;;;;;1903972;28;7332;-67
2022/09/12 06:45:34;;;;;;;;;;;;;;;;;;1904270;28;7025;-66
2022/09/12 06:46:31;;;;;;;;;;;;;;;;;;1902799;28;7121;-67
2022/09/12 06:47:29;;;;;;;;;;;;;;;;;;1903958;28;7096;-67
2022/09/12 06:48:26;;;;;;;;;;;;;;;;;;1902256;28;7045;-68
2022/09/12 06:49:24;;;;;;;;;;;;;;;;;;1904126;28;7097;-66
2022/09/12 06:50:21;;;;;;;;;;;;;;;;;;1903198;28;7368;-67
2022/09/12 06:51:19;;;;;;;;;;;;;;;;;;1903051;28;7042;-67
2022/09/12 06:52:16;;;;;;;;;;;;;;;;;;1903136;28;7025;-67
2022/09/12 06:53:14;;;;;;;;;;;;;;;;;;1903590;28;7029;-67
2022/09/12 06:54:12;;;;;;;;;;;;;;;;;;1903279;28;7189;-67
2022/09/12 06:55:10;;;;;;;;;;;;;;;;;;1903645;28;8043;-67
2022/09/12 06:56:12;;;;;;;;;;;;;;;;;;1903724;28;7006;-66
2022/09/12 06:57:10;;;;;;;;;;;;;;;;;;1902970;28;7021;-67
2022/09/12 06:58:08;;;;;;;;;;;;;;;;;;1904206;28;7100;-67
2022/09/12 06:59:05;;;;;;;;;;;;;;;;;;1904194;28;7009;-67
2022/09/12 07:00:04;;;;;;;;;;;;;;;;;;1903577;28;7092;-67